Decoded Metar for KNMM (MERIDIAN in MS, USA) (IATA:NMM) | Meteo·Mobile Aviation Weather
aviador You're here:

KNMM Decoded Metar

MERIDIAN in MS, USA
Report Time2018-12-13 02:56:00
UTC Time2018-12-13 03:47:48
Flight Rules vfr VFR
Wind150° at 04 kt
W.Decomp.*RWY 19: 3.0 kt HW 2.6 kt LCW
RWY 10: 2.6 kt HW 3.0 kt RCW
W.Rank150° ranks 7
Current wind is below 150° avg. (5.1)
Visibility9999 m
Phenomena:N/A
Clouds:Overcast 220 Hf
Expected CloudBase > 400 ft AGL from Temp-Dew spread
Ceiling22,000 ft
Temp09°C (ISA -5)
Dew Point08°C (94% RH)
AAT7.1°C
QNH1020 hPa
Density Alt-417 ft
Elevation318 ft
Report Wrong Elevation
Raw Report
KNMM 130256Z 15004KT 10SM OVC220 09/08 A3013 RMK AO2 SLP213
T00940078 57004 VISNO SOUTH $=

Extra information for KNMM:More info

Metar Taf Metar & Taf Last 4 Metars F.Rules Stats Wind Profile Meteogram Temp Stats Airport Information Weather charts Add Link Nearby VenuesMetar ALERT Operation Metar Decoded Social comments

AIRNAV info for KNMM